Timber Mountain, Nevada Weather observations

Data are for 10 minute period ending at time listed.
 Day   Time   Solar   Ave.   Ave.  Ave.  Vector  Max.   Baro.   Total    
  of    of     Rad.   Air    Rel.  Wind   Wind   Wind  Press.  Precip.   
Year   Day            Temp.  Hum.  Speed  Dir.   Gust                    
2015   (PST)  Kw/m2    F      %     mph   deg.    mph    mb.     in.     
-------------------------------------------------------------------------
  88    2:00   0.00   49.9    21    4.7   102     7.5   815.4    0.00 
  88    3:00   0.00   47.9    24    6.5   122     8.7   815.1    0.00 
  88    4:00   0.00   47.3    27    6.4   122     9.3   815.0    0.00 
  88    5:00   0.00   46.6    27    6.9   119     9.7   815.1    0.00 
  88    6:00   0.01   46.5    27    7.4   122    10.4   815.5    0.00 
  88    7:00   0.11   51.0    25    6.1   112    10.1   815.9    0.00 
  88    8:00   0.35   58.4    17    9.5   116    14.9   816.1    0.00 
  88    9:00   0.58   61.2    16    9.7   119    14.9   816.3    0.00 
  88   10:00   0.72   65.3    15    6.2   106    12.9   816.4    0.00 
  88   11:00   0.84   67.4    14    5.7   134    15.7   816.2    0.00 
  88   12:00   0.95   69.3    12    6.3   159    15.0   815.8    0.00 
  88   13:00   0.95   70.2    11    6.5   153    17.8   815.4    0.00 
  88   14:00   0.88   69.7    11    7.9   142    18.3   814.9    0.00 
  88   15:00   0.74   69.9    11    7.6   172    17.3   814.5    0.00 
  88   16:00   0.55   69.6    10    7.6   196    16.4   814.1    0.00 
  88   17:00   0.33   68.8    10    6.0   216    15.6   813.9    0.00 
  88   18:00   0.11   64.0    11    7.4   146    17.8   813.8    0.00 
  88   19:00   0.00   56.8    14    4.8   157     8.8   814.1    0.00 
  88   20:00   0.00   55.9    16    4.7   167     9.0   814.5    0.00 
  88   21:00   0.00   55.6    16    4.8   161     8.4   814.6    0.00 
  88   22:00   0.00   51.3    21    2.6   100     5.6   814.9    0.00 
  88   23:00   0.00   49.2    23    4.6   109     6.3   814.8    0.00 
  89    0:00   0.00   51.0    20    4.5   103     6.0   814.7    0.00 
  89    1:00   0.00   51.4    19    2.7   114     5.2   814.7    0.00 

Return to Timber Mountain graphs page.


Western Regional Climate Center,wrcc@dri.edu